createdAt,value
2023-04-18T00:02:03.560Z,100.00
2023-04-18T00:04:18.340Z,100.00
2023-04-18T00:06:31.993Z,100.00
2023-04-18T00:08:44.577Z,100.00
2023-04-18T00:10:57.225Z,100.00
2023-04-18T00:13:10.120Z,100.00
2023-04-18T00:15:22.701Z,100.00
2023-04-18T00:17:38.537Z,100.00
2023-04-18T00:19:51.736Z,100.00
2023-04-18T00:22:04.326Z,100.00
2023-04-18T00:24:16.858Z,100.00
2023-04-18T00:26:29.446Z,100.00
2023-04-18T00:28:41.979Z,100.00
2023-04-18T00:30:54.584Z,100.00
2023-04-18T00:33:07.252Z,100.00
2023-04-18T00:35:19.999Z,100.00
2023-04-18T00:37:32.630Z,100.00
2023-04-18T00:39:45.207Z,100.00
2023-04-18T00:41:57.782Z,100.00
2023-04-18T00:44:10.377Z,100.00
2023-04-18T00:46:23.120Z,100.00
2023-04-18T00:48:35.960Z,100.00
2023-04-18T00:50:48.582Z,100.00
2023-04-18T00:53:01.239Z,100.00
2023-04-18T00:55:13.920Z,100.00
2023-04-18T00:57:26.847Z,100.00
2023-04-18T00:59:39.669Z,100.00
2023-04-18T01:01:52.340Z,100.00
2023-04-18T01:04:05.183Z,100.00
2023-04-18T01:06:18.152Z,100.00
2023-04-18T01:08:31.224Z,100.00
2023-04-18T01:10:43.967Z,100.00
2023-04-18T01:13:18.509Z,100.00
2023-04-18T01:15:31.049Z,100.00
2023-04-18T01:17:43.636Z,100.00
2023-04-18T01:19:56.864Z,100.00
2023-04-18T01:22:11.407Z,100.00
2023-04-18T01:24:26.633Z,100.00
2023-04-18T01:26:39.866Z,100.00
2023-04-18T01:28:52.440Z,100.00
2023-04-18T01:31:05.666Z,100.00
2023-04-18T01:33:18.319Z,100.00
2023-04-18T01:35:31.799Z,100.00
2023-04-18T01:37:44.334Z,100.00
2023-04-18T01:39:58.272Z,100.00
2023-04-18T01:42:10.814Z,100.00
2023-04-18T01:44:23.344Z,100.00
2023-04-18T01:46:36.512Z,100.00
2023-04-18T01:48:49.174Z,100.00
2023-04-18T01:51:01.737Z,100.00
2023-04-18T01:53:14.336Z,100.00
2023-04-18T01:55:26.888Z,100.00
2023-04-18T01:57:40.033Z,100.00
2023-04-18T01:59:52.814Z,100.00
2023-04-18T02:02:05.401Z,100.00
2023-04-18T02:04:18.168Z,100.00
2023-04-18T02:06:30.862Z,100.00
2023-04-18T02:08:43.412Z,100.00
2023-04-18T02:10:56.162Z,100.00
2023-04-18T02:13:08.771Z,100.00
2023-04-18T02:15:23.430Z,100.00
2023-04-18T02:17:36.704Z,100.00
2023-04-18T02:19:53.167Z,100.00
2023-04-18T02:22:05.711Z,100.00
2023-04-18T02:24:18.430Z,100.00
2023-04-18T02:26:31.082Z,100.00
2023-04-18T02:28:43.668Z,100.00
2023-04-18T02:30:56.193Z,100.00
2023-04-18T02:33:08.785Z,100.00
2023-04-18T02:35:21.590Z,100.00
2023-04-18T02:37:34.122Z,100.00
2023-04-18T02:39:46.689Z,100.00
2023-04-18T02:41:59.324Z,100.00
2023-04-18T02:44:12.186Z,100.00
2023-04-18T02:46:25.136Z,100.00
2023-04-18T02:48:38.034Z,100.00
2023-04-18T02:50:50.617Z,100.00
2023-04-18T02:53:03.259Z,100.00
2023-04-18T02:55:16.143Z,100.00
2023-04-18T02:57:28.772Z,100.00
2023-04-18T02:59:41.356Z,100.00
2023-04-18T03:01:53.898Z,100.00
2023-04-18T03:04:06.456Z,100.00
2023-04-18T03:06:18.956Z,100.00
2023-04-18T03:08:31.480Z,100.00
2023-04-18T03:10:43.997Z,100.00
2023-04-18T03:12:56.520Z,100.00
2023-04-18T03:15:09.538Z,100.00
2023-04-18T03:17:22.345Z,100.00
2023-04-18T03:19:34.956Z,100.00
2023-04-18T03:21:47.558Z,100.00
2023-04-18T03:24:00.513Z,100.00
2023-04-18T03:26:13.835Z,100.00
2023-04-18T03:28:26.387Z,100.00
2023-04-18T03:30:38.977Z,100.00
2023-04-18T03:32:52.968Z,100.00
2023-04-18T03:35:06.022Z,100.00
2023-04-18T03:37:18.532Z,100.00
2023-04-18T03:39:31.126Z,100.00
2023-04-18T03:41:43.701Z,100.00
2023-04-18T03:43:56.254Z,100.00
2023-04-18T03:46:08.828Z,100.00
2023-04-18T03:48:21.452Z,100.00
2023-04-18T03:50:34.014Z,100.00
2023-04-18T03:52:46.516Z,100.00
2023-04-18T03:54:59.047Z,100.00
2023-04-18T03:57:11.614Z,100.00
2023-04-18T03:59:24.171Z,100.00
2023-04-18T04:01:37.333Z,100.00
2023-04-18T04:03:50.065Z,100.00
2023-04-18T04:06:02.927Z,100.00
2023-04-18T04:08:16.420Z,100.00
2023-04-18T04:10:28.946Z,100.00
2023-04-18T04:12:41.516Z,100.00
2023-04-18T04:14:54.649Z,100.00
2023-04-18T04:17:07.239Z,100.00
2023-04-18T04:19:19.852Z,100.00
2023-04-18T04:21:32.424Z,100.00
2023-04-18T04:23:46.206Z,100.00
2023-04-18T04:25:59.265Z,100.00
2023-04-18T04:28:13.196Z,100.00
2023-04-18T04:30:26.186Z,100.00
2023-04-18T04:32:40.404Z,100.00
2023-04-18T04:34:53.590Z,100.00
2023-04-18T04:37:06.179Z,100.00
2023-04-18T04:39:18.716Z,100.00
2023-04-18T04:41:31.665Z,100.00
2023-04-18T04:43:44.308Z,100.00
2023-04-18T04:45:57.684Z,100.00
2023-04-18T04:48:11.213Z,100.00
2023-04-18T04:50:23.838Z,100.00
2023-04-18T04:52:36.541Z,100.00
2023-04-18T04:54:51.506Z,100.00
2023-04-18T04:57:04.352Z,100.00
2023-04-18T04:59:17.333Z,100.00
2023-04-18T05:01:29.896Z,100.00
2023-04-18T05:03:43.102Z,100.00
2023-04-18T05:05:55.990Z,100.00
2023-04-18T05:08:08.506Z,100.00
2023-04-18T05:10:21.671Z,100.00
2023-04-18T05:12:34.221Z,100.00
2023-04-18T05:14:46.751Z,100.00
2023-04-18T05:16:59.620Z,100.00
2023-04-18T05:19:12.241Z,100.00
2023-04-18T05:21:26.118Z,100.00
2023-04-18T05:23:39.764Z,100.00
2023-04-18T05:25:52.419Z,100.00
2023-04-18T05:28:04.912Z,100.00
2023-04-18T05:30:17.647Z,100.00
2023-04-18T05:32:30.272Z,100.00
2023-04-18T05:34:43.005Z,100.00
2023-04-18T05:36:55.564Z,100.00
2023-04-18T05:39:08.142Z,100.00
2023-04-18T05:41:20.768Z,100.00
2023-04-18T05:43:33.319Z,100.00
2023-04-18T05:45:46.149Z,100.00
2023-04-18T05:47:58.738Z,100.00
2023-04-18T05:50:11.337Z,100.00
2023-04-18T05:52:25.979Z,100.00
2023-04-18T05:54:38.521Z,100.00
2023-04-18T05:56:51.530Z,100.00
2023-04-18T05:59:04.116Z,100.00
2023-04-18T06:01:21.294Z,100.00
2023-04-18T06:03:34.733Z,100.00
2023-04-18T06:05:47.782Z,100.00
2023-04-18T06:08:00.332Z,100.00
2023-04-18T06:10:13.546Z,100.00
2023-04-18T06:12:26.239Z,100.00
2023-04-18T06:14:38.776Z,100.00
2023-04-18T06:16:51.540Z,100.00
2023-04-18T06:19:05.187Z,100.00
2023-04-18T06:21:17.977Z,100.00
2023-04-18T06:23:30.760Z,100.00
2023-04-18T06:25:43.364Z,100.00
2023-04-18T06:27:56.092Z,100.00
2023-04-18T06:30:09.444Z,100.00
2023-04-18T06:32:22.046Z,100.00
2023-04-18T06:34:34.683Z,100.00
2023-04-18T06:36:47.365Z,100.00
2023-04-18T06:39:00.124Z,100.00
2023-04-18T06:41:14.611Z,100.00
2023-04-18T06:43:27.259Z,100.00
2023-04-18T06:45:40.286Z,100.00
2023-04-18T06:47:53.135Z,100.00
2023-04-18T06:50:07.077Z,100.00
2023-04-18T06:52:19.632Z,100.00
2023-04-18T06:54:32.143Z,100.00
2023-04-18T06:56:44.730Z,100.00
2023-04-18T06:58:57.349Z,100.00
2023-04-18T07:01:09.913Z,100.00
2023-04-18T07:03:22.568Z,100.00
2023-04-18T07:05:36.871Z,100.00
2023-04-18T07:07:49.497Z,100.00
2023-04-18T07:10:02.313Z,100.00
2023-04-18T07:12:15.333Z,100.00
2023-04-18T07:14:28.446Z,100.00
2023-04-18T07:16:41.198Z,100.00
2023-04-18T07:18:53.809Z,100.00
2023-04-18T07:21:09.281Z,100.00
2023-04-18T07:23:21.886Z,100.00
2023-04-18T07:25:34.496Z,100.00
2023-04-18T07:27:47.590Z,100.00
2023-04-18T07:30:00.373Z,100.00
2023-04-18T07:32:13.171Z,100.00
2023-04-18T07:34:29.745Z,100.00
2023-04-18T07:36:42.346Z,100.00
2023-04-18T07:38:54.902Z,100.00
2023-04-18T07:41:07.488Z,100.00
2023-04-18T07:43:20.964Z,100.00
2023-04-18T07:45:36.316Z,100.00
2023-04-18T07:47:49.183Z,100.00
2023-04-18T07:50:02.901Z,100.00
2023-04-18T07:52:15.406Z,100.00
2023-04-18T07:54:27.995Z,100.00
2023-04-18T07:56:41.024Z,100.00
2023-04-18T07:58:53.652Z,100.00
2023-04-18T08:01:07.582Z,100.00
2023-04-18T08:03:20.286Z,100.00
2023-04-18T08:05:33.460Z,100.00
2023-04-18T08:07:46.063Z,100.00
2023-04-18T08:09:58.633Z,100.00
2023-04-18T08:12:11.172Z,100.00
2023-04-18T08:14:23.749Z,100.00
2023-04-18T08:16:36.648Z,100.00
2023-04-18T08:18:49.231Z,100.00
2023-04-18T08:21:01.840Z,100.00
2023-04-18T08:23:14.941Z,100.00
2023-04-18T08:25:27.518Z,100.00
2023-04-18T08:27:40.117Z,100.00
2023-04-18T08:29:52.637Z,100.00
2023-04-18T08:32:08.439Z,100.00
2023-04-18T08:34:21.009Z,100.00
2023-04-18T08:36:34.765Z,100.00
2023-04-18T08:38:47.586Z,100.00
2023-04-18T08:41:00.182Z,100.00
2023-04-18T08:43:14.850Z,100.00
2023-04-18T08:45:28.721Z,100.00
2023-04-18T08:47:42.015Z,100.00
2023-04-18T08:49:55.660Z,100.00
2023-04-18T08:52:13.910Z,100.00
2023-04-18T08:54:30.311Z,100.00
2023-04-18T08:56:42.882Z,100.00
2023-04-18T08:58:56.521Z,100.00
2023-04-18T09:01:10.093Z,100.00
2023-04-18T09:03:40.237Z,100.00
2023-04-18T09:06:15.112Z,100.00
2023-04-18T09:08:27.868Z,100.00
2023-04-18T09:10:42.794Z,100.00
2023-04-18T09:12:58.020Z,100.00
2023-04-18T09:15:17.223Z,100.00
2023-04-18T09:17:35.266Z,100.00
2023-04-18T09:19:48.955Z,100.00
2023-04-18T09:22:04.466Z,100.00
2023-04-18T09:24:24.288Z,100.00
2023-04-18T09:26:37.665Z,100.00
2023-04-18T09:28:53.850Z,100.00
2023-04-18T09:31:11.925Z,100.00
2023-04-18T09:33:29.258Z,100.00
2023-04-18T09:35:42.489Z,100.00
2023-04-18T09:37:55.449Z,100.00
2023-04-18T09:40:18.909Z,100.00
2023-04-18T09:42:37.079Z,100.00
2023-04-18T09:45:07.035Z,100.00
2023-04-18T09:47:19.608Z,100.00
2023-04-18T09:49:32.972Z,100.00
2023-04-18T09:51:46.572Z,100.00
2023-04-18T09:54:00.274Z,100.00
2023-04-18T09:56:19.668Z,100.00
2023-04-18T09:58:34.416Z,100.00
2023-04-18T10:00:47.359Z,100.00
2023-04-18T10:03:10.511Z,100.00
2023-04-18T10:05:35.568Z,100.00
2023-04-18T10:07:49.918Z,100.00
2023-04-18T10:10:02.533Z,100.00
2023-04-18T10:12:17.351Z,100.00
2023-04-18T10:14:32.879Z,100.00
2023-04-18T10:16:46.072Z,100.00
2023-04-18T10:19:26.658Z,100.00
2023-04-18T10:21:51.179Z,100.00
2023-04-18T10:24:06.032Z,100.00
2023-04-18T10:26:18.583Z,100.00
2023-04-18T10:28:56.392Z,100.00
2023-04-18T10:31:08.972Z,100.00
2023-04-18T10:33:35.273Z,100.00
2023-04-18T10:36:12.227Z,100.00
2023-04-18T10:38:25.048Z,100.00
2023-04-18T10:40:37.591Z,100.00
2023-04-18T10:42:52.912Z,100.00
2023-04-18T10:45:22.739Z,100.00
2023-04-18T10:47:35.478Z,100.00
2023-04-18T10:49:55.949Z,100.00
2023-04-18T10:52:08.671Z,100.00
2023-04-18T10:54:56.982Z,100.00
2023-04-18T10:57:11.999Z,100.00
2023-04-18T10:59:26.680Z,100.00
2023-04-18T11:01:46.295Z,100.00
2023-04-18T11:03:59.498Z,100.00
2023-04-18T11:06:12.241Z,100.00
2023-04-18T11:08:25.356Z,100.00
2023-04-18T11:10:37.865Z,100.00
2023-04-18T11:12:51.074Z,100.00
2023-04-18T11:15:10.779Z,100.00
2023-04-18T11:17:26.018Z,100.00
2023-04-18T11:19:38.608Z,100.00
2023-04-18T11:21:51.797Z,100.00
2023-04-18T11:24:04.701Z,100.00
2023-04-18T11:26:21.736Z,100.00
2023-04-18T11:28:36.683Z,100.00
2023-04-18T11:30:49.549Z,100.00
2023-04-18T11:33:11.303Z,100.00
2023-04-18T11:35:24.114Z,100.00
2023-04-18T11:37:38.220Z,100.00
2023-04-18T11:39:53.627Z,100.00
2023-04-18T11:42:06.334Z,100.00
2023-04-18T11:44:26.490Z,100.00
2023-04-18T11:46:39.767Z,100.00
2023-04-18T11:48:52.336Z,100.00
2023-04-18T11:51:36.600Z,100.00
2023-04-18T11:55:09.040Z,100.00
2023-04-18T11:58:02.228Z,100.00
2023-04-18T12:00:15.507Z,100.00
2023-04-18T12:02:43.517Z,100.00
2023-04-18T12:05:08.087Z,100.00
2023-04-18T12:07:41.277Z,100.00
2023-04-18T12:09:54.343Z,100.00
2023-04-18T12:12:07.000Z,100.00
2023-04-18T12:14:21.505Z,100.00
2023-04-18T12:16:34.958Z,100.00
2023-04-18T12:18:47.511Z,100.00
2023-04-18T12:21:01.871Z,100.00
2023-04-18T12:23:30.567Z,100.00
2023-04-18T12:25:43.185Z,100.00
2023-04-18T12:28:04.104Z,100.00
2023-04-18T12:30:19.946Z,100.00
2023-04-18T12:32:32.560Z,100.00
2023-04-18T12:34:45.254Z,100.00
2023-04-18T12:36:57.890Z,100.00
2023-04-18T12:39:10.705Z,100.00
2023-04-18T12:41:23.354Z,100.00
2023-04-18T12:43:35.918Z,100.00
2023-04-18T12:45:49.742Z,100.00
2023-04-18T12:48:02.357Z,100.00
2023-04-18T12:50:17.970Z,100.00
2023-04-18T12:52:31.670Z,100.00
2023-04-18T12:54:44.285Z,100.00
2023-04-18T12:56:56.863Z,99.84
2023-04-18T12:59:09.439Z,100.00
2023-04-18T13:01:22.129Z,99.92
2023-04-18T13:03:36.666Z,99.21
2023-04-18T13:05:49.306Z,98.45
2023-04-18T13:10:19.498Z,96.79
2023-04-18T13:12:32.071Z,95.99
2023-04-18T13:14:44.608Z,95.74
2023-04-18T13:16:57.140Z,95.17
2023-04-18T13:19:09.852Z,94.94
2023-04-18T13:21:24.998Z,93.01
2023-04-18T13:23:37.877Z,90.96
2023-04-18T13:25:50.458Z,90.62
2023-04-18T13:28:03.021Z,90.36
2023-04-18T13:30:15.890Z,89.61
2023-04-18T13:32:28.512Z,89.75
2023-04-18T13:34:46.271Z,89.32
2023-04-18T13:36:59.217Z,89.32
2023-04-18T13:39:12.282Z,89.43
2023-04-18T13:41:24.973Z,88.88
2023-04-18T13:43:37.590Z,88.76
2023-04-18T13:45:50.301Z,88.14
2023-04-18T13:48:03.058Z,88.47
2023-04-18T13:50:16.083Z,87.48
2023-04-18T13:52:28.818Z,88.40
2023-04-18T13:54:41.495Z,88.22
2023-04-18T13:56:55.176Z,88.11
2023-04-18T13:59:07.849Z,88.09
2023-04-18T14:01:21.113Z,87.95
2023-04-18T14:03:35.381Z,87.27
2023-04-18T14:05:49.482Z,87.26
2023-04-18T14:08:03.872Z,86.39
2023-04-18T14:10:16.521Z,86.18
2023-04-18T14:12:29.122Z,85.56
2023-04-18T14:15:16.796Z,85.53
2023-04-18T14:17:29.505Z,85.09
2023-04-18T14:19:42.083Z,84.48
2023-04-18T14:22:01.401Z,84.00
2023-04-18T14:24:16.956Z,82.53
2023-04-18T14:26:29.594Z,83.17
2023-04-18T14:28:42.171Z,82.68
2023-04-18T14:30:57.647Z,81.45
2023-04-18T14:33:11.055Z,80.97
2023-04-18T14:35:23.661Z,80.47
2023-04-18T14:37:36.268Z,80.30
2023-04-18T14:39:48.889Z,80.05
2023-04-18T14:42:01.513Z,79.66
2023-04-18T14:44:14.041Z,79.57
2023-04-18T14:46:28.343Z,79.18
2023-04-18T14:48:41.045Z,79.00
2023-04-18T14:50:57.598Z,78.91
2023-04-18T14:53:11.090Z,78.94
2023-04-18T14:55:23.699Z,78.72
2023-04-18T14:57:37.259Z,79.53
2023-04-18T14:59:50.912Z,80.80
2023-04-18T15:02:03.579Z,81.51
2023-04-18T15:04:16.532Z,80.98
2023-04-18T15:06:29.318Z,81.22
2023-04-18T15:08:44.062Z,80.36
2023-04-18T15:10:56.736Z,80.37
2023-04-18T15:13:09.959Z,79.95
2023-04-18T15:15:22.668Z,79.57
2023-04-18T15:17:35.873Z,79.30
2023-04-18T15:19:48.497Z,79.27
2023-04-18T15:22:01.110Z,78.72
2023-04-18T15:24:14.403Z,78.74
2023-04-18T15:26:27.057Z,78.88
2023-04-18T15:28:39.898Z,78.72
2023-04-18T15:30:52.678Z,79.13
2023-04-18T15:33:05.408Z,79.42
2023-04-18T15:35:18.007Z,79.63
2023-04-18T15:37:30.608Z,79.98
2023-04-18T15:39:43.170Z,80.64
2023-04-18T15:41:56.429Z,80.80
2023-04-18T15:44:09.263Z,81.10
2023-04-18T15:46:22.204Z,81.29
2023-04-18T15:48:36.347Z,81.62
2023-04-18T15:50:52.266Z,82.00
2023-04-18T15:53:04.825Z,82.41
2023-04-18T15:55:17.419Z,82.55
2023-04-18T15:57:30.237Z,83.11
2023-04-18T15:59:42.881Z,83.36
2023-04-18T16:01:56.164Z,83.97
2023-04-18T16:04:08.972Z,84.15
2023-04-18T16:06:23.374Z,84.47
2023-04-18T16:08:37.315Z,85.00
2023-04-18T16:10:52.160Z,85.14
2023-04-18T16:13:04.720Z,85.48
2023-04-18T16:15:17.281Z,86.06
2023-04-18T16:17:30.377Z,86.02
2023-04-18T16:19:42.999Z,86.31
2023-04-18T16:21:55.549Z,86.45
2023-04-18T16:24:14.799Z,86.90
2023-04-18T16:26:28.844Z,87.10
2023-04-18T16:28:42.040Z,87.58
2023-04-18T16:30:55.721Z,87.93
2023-04-18T16:33:08.475Z,88.13
2023-04-18T16:35:21.161Z,88.27
2023-04-18T16:37:33.903Z,88.43
2023-04-18T16:39:46.802Z,88.54
2023-04-18T16:41:59.413Z,88.62
2023-04-18T16:44:12.076Z,88.82
2023-04-18T16:46:25.321Z,88.96
2023-04-18T16:48:38.722Z,89.47
2023-04-18T16:50:51.592Z,89.45
2023-04-18T16:53:04.228Z,89.91
2023-04-18T16:55:16.901Z,90.17
2023-04-18T16:57:29.474Z,90.60
2023-04-18T16:59:41.991Z,90.99
2023-04-18T17:01:54.708Z,91.23
2023-04-18T17:04:07.358Z,91.37
2023-04-18T17:06:22.544Z,91.74
2023-04-18T17:08:35.923Z,92.26
2023-04-18T17:10:52.080Z,92.93
2023-04-18T17:13:04.717Z,93.07
2023-04-18T17:15:19.012Z,93.26
2023-04-18T17:17:31.543Z,93.44
2023-04-18T17:19:44.112Z,94.17
2023-04-18T17:21:56.619Z,94.59
2023-04-18T17:24:09.285Z,94.59
2023-04-18T17:26:24.138Z,94.87
2023-04-18T17:28:36.965Z,95.22
2023-04-18T17:30:50.237Z,95.57
2023-04-18T17:33:02.815Z,95.61
2023-04-18T17:35:15.383Z,95.73
2023-04-18T17:37:27.923Z,95.97
2023-04-18T17:39:40.654Z,96.27
2023-04-18T17:41:53.216Z,96.58
2023-04-18T17:44:08.087Z,96.41
2023-04-18T17:46:20.856Z,96.83
2023-04-18T17:48:33.541Z,96.75
2023-04-18T17:50:46.182Z,97.00
2023-04-18T17:52:58.796Z,96.74
2023-04-18T17:55:11.707Z,96.96
2023-04-18T17:57:26.590Z,97.16
2023-04-18T17:59:39.271Z,97.21
2023-04-18T18:01:51.852Z,97.53
2023-04-18T18:04:04.765Z,97.71
2023-04-18T18:06:17.583Z,97.65
2023-04-18T18:08:30.678Z,97.70
2023-04-18T18:10:44.329Z,97.71
2023-04-18T18:12:57.355Z,97.54
2023-04-18T18:15:10.259Z,97.92
2023-04-18T18:17:22.873Z,98.07
2023-04-18T18:19:36.266Z,98.10
2023-04-18T18:21:48.876Z,98.47
2023-04-18T18:24:01.431Z,98.33
2023-04-18T18:26:14.000Z,98.10
2023-04-18T18:28:26.628Z,98.08
2023-04-18T18:30:39.148Z,98.18
2023-04-18T18:32:53.340Z,98.14
2023-04-18T18:35:06.237Z,98.21
2023-04-18T18:37:18.900Z,98.09
2023-04-18T18:39:31.624Z,98.10
2023-04-18T18:41:44.143Z,97.78
2023-04-18T18:43:56.714Z,97.77
2023-04-18T18:46:09.310Z,97.70
2023-04-18T18:48:22.083Z,97.84
2023-04-18T18:50:34.672Z,97.83
2023-04-18T18:52:47.302Z,97.99
2023-04-18T18:55:01.435Z,97.97
2023-04-18T18:57:14.307Z,98.04
2023-04-18T18:59:26.824Z,97.72
2023-04-18T19:01:39.356Z,98.28
2023-04-18T19:03:52.135Z,98.23
2023-04-18T19:06:06.974Z,98.31
2023-04-18T19:08:19.573Z,98.58
2023-04-18T19:10:32.196Z,99.03
2023-04-18T19:12:44.866Z,99.18
2023-04-18T19:14:57.408Z,99.22
2023-04-18T19:17:09.977Z,99.29
2023-04-18T19:19:22.596Z,99.11
2023-04-18T19:21:35.183Z,99.48
2023-04-18T19:23:47.903Z,99.45
2023-04-18T19:26:00.434Z,99.32
2023-04-18T19:28:14.367Z,99.28
2023-04-18T19:30:26.974Z,99.22
2023-04-18T19:32:39.589Z,99.40
2023-04-18T19:34:52.306Z,99.15
2023-04-18T19:37:05.183Z,99.22
2023-04-18T19:39:18.128Z,99.14
2023-04-18T19:41:30.702Z,99.31
2023-04-18T19:43:43.338Z,99.43
2023-04-18T19:45:55.966Z,99.59
2023-04-18T19:48:08.522Z,99.52
2023-04-18T19:50:21.050Z,99.52
2023-04-18T19:52:33.628Z,99.12
2023-04-18T19:54:46.193Z,99.38
2023-04-18T19:56:58.773Z,99.16
2023-04-18T19:59:11.554Z,99.27
2023-04-18T20:01:25.638Z,99.35
2023-04-18T20:03:39.608Z,99.24
2023-04-18T20:05:52.409Z,98.97
2023-04-18T20:08:05.195Z,99.25
2023-04-18T20:10:21.290Z,99.10
2023-04-18T20:12:33.915Z,98.95
2023-04-18T20:14:46.471Z,98.68
2023-04-18T20:16:59.060Z,98.87
2023-04-18T20:19:12.675Z,98.91
2023-04-18T20:21:25.387Z,98.63
2023-04-18T20:23:38.054Z,98.53
2023-04-18T20:25:51.068Z,98.63
2023-04-18T20:28:03.969Z,98.17
2023-04-18T20:30:16.634Z,98.25
2023-04-18T20:32:29.306Z,98.13
2023-04-18T20:34:41.986Z,98.21
2023-04-18T20:36:54.578Z,98.36
2023-04-18T20:39:10.029Z,98.14
2023-04-18T20:41:24.177Z,98.27
2023-04-18T20:43:37.242Z,98.33
2023-04-18T20:45:54.570Z,98.08
2023-04-18T20:48:07.457Z,97.87
2023-04-18T20:50:20.558Z,97.94
2023-04-18T20:52:33.162Z,97.80
2023-04-18T20:54:45.914Z,97.68
2023-04-18T20:56:58.508Z,97.72
2023-04-18T20:59:11.058Z,97.76
2023-04-18T21:01:23.837Z,97.72
2023-04-18T21:03:36.630Z,97.41
2023-04-18T21:05:49.450Z,97.27
2023-04-18T21:08:02.007Z,97.33
2023-04-18T21:10:14.696Z,97.37
2023-04-18T21:12:27.552Z,97.22
2023-04-18T21:14:40.164Z,97.07
2023-04-18T21:16:52.720Z,97.16
2023-04-18T21:19:06.442Z,96.81
2023-04-18T21:21:18.950Z,96.72
2023-04-18T21:23:31.501Z,96.98
2023-04-18T21:25:44.139Z,97.15
2023-04-18T21:27:56.663Z,97.00
2023-04-18T21:30:09.330Z,97.06
2023-04-18T21:32:21.911Z,96.83
2023-04-18T21:34:34.558Z,96.84
2023-04-18T21:36:47.112Z,96.83
2023-04-18T21:39:01.137Z,96.82
2023-04-18T21:41:15.915Z,96.80
2023-04-18T21:43:28.451Z,96.90
2023-04-18T21:45:41.010Z,96.57
2023-04-18T21:47:53.725Z,96.39
2023-04-18T21:50:06.948Z,96.28
2023-04-18T21:52:19.625Z,96.39
2023-04-18T21:54:32.241Z,96.26
2023-04-18T21:56:44.785Z,96.19
2023-04-18T21:58:57.312Z,96.05
2023-04-18T22:01:09.857Z,95.99
2023-04-18T22:03:23.593Z,96.06
2023-04-18T22:05:37.013Z,95.95
2023-04-18T22:07:57.291Z,96.28
2023-04-18T22:10:11.804Z,96.12
2023-04-18T22:12:24.502Z,96.19
2023-04-18T22:14:37.116Z,96.21
2023-04-18T22:16:49.990Z,96.32
2023-04-18T22:19:03.885Z,96.66
2023-04-18T22:21:16.425Z,96.55
2023-04-18T22:23:30.207Z,96.68
2023-04-18T22:25:42.739Z,96.55
2023-04-18T22:27:55.457Z,96.43
2023-04-18T22:30:08.597Z,96.63
2023-04-18T22:32:21.215Z,96.95
2023-04-18T22:34:33.770Z,96.79
2023-04-18T22:36:46.348Z,96.90
2023-04-18T22:38:58.987Z,96.88
2023-04-18T22:41:11.520Z,96.74
2023-04-18T22:43:24.890Z,96.91
2023-04-18T22:45:37.424Z,96.93
2023-04-18T22:47:50.013Z,96.78
2023-04-18T22:50:02.772Z,96.72
2023-04-18T22:52:15.789Z,96.87
2023-04-18T22:54:28.318Z,96.85
2023-04-18T22:56:41.629Z,96.83
2023-04-18T22:58:54.132Z,96.80
2023-04-18T23:01:06.689Z,96.71
2023-04-18T23:03:19.414Z,96.78
2023-04-18T23:05:32.172Z,96.71
2023-04-18T23:07:44.675Z,96.81
2023-04-18T23:09:57.231Z,96.85
2023-04-18T23:12:09.740Z,96.94
2023-04-18T23:14:22.516Z,97.00
2023-04-18T23:16:35.068Z,96.97
2023-04-18T23:18:47.631Z,97.04
2023-04-18T23:21:00.796Z,97.16
2023-04-18T23:23:13.366Z,97.06
2023-04-18T23:25:25.945Z,97.17
2023-04-18T23:27:38.487Z,97.32
2023-04-18T23:29:50.996Z,97.21
2023-04-18T23:32:03.809Z,97.18
2023-04-18T23:34:16.418Z,97.32
2023-04-18T23:36:29.944Z,97.30
2023-04-18T23:38:42.661Z,97.31
2023-04-18T23:40:55.185Z,97.49
2023-04-18T23:43:07.775Z,97.54
2023-04-18T23:45:20.776Z,97.58
2023-04-18T23:47:33.714Z,97.87
2023-04-18T23:49:46.223Z,98.03
2023-04-18T23:51:58.783Z,98.13
2023-04-18T23:54:11.571Z,98.13
2023-04-18T23:56:24.107Z,98.18
2023-04-18T23:58:36.749Z,98.17
